createdAt,value
2022-12-26T00:02:15.492Z,9.75
2022-12-26T00:06:32.313Z,9.95
2022-12-26T00:10:48.534Z,9.83
2022-12-26T00:15:05.288Z,9.88
2022-12-26T00:19:21.550Z,9.63
2022-12-26T00:23:38.373Z,9.57
2022-12-26T00:27:54.648Z,9.25
2022-12-26T00:32:10.944Z,9.40
2022-12-26T00:36:30.908Z,9.23
2022-12-26T00:40:47.057Z,9.11
2022-12-26T00:45:03.646Z,9.20
2022-12-26T00:49:19.960Z,9.24
2022-12-26T00:53:36.705Z,9.09
2022-12-26T00:57:52.914Z,8.80
2022-12-26T01:02:29.240Z,8.91
2022-12-26T01:06:45.593Z,8.96
2022-12-26T01:11:12.835Z,8.72
2022-12-26T01:15:29.069Z,8.91
2022-12-26T01:19:45.456Z,8.82
2022-12-26T01:24:02.153Z,8.76
2022-12-26T01:28:18.385Z,8.63
2022-12-26T01:32:34.620Z,8.44
2022-12-26T01:36:52.232Z,8.52
2022-12-26T01:41:17.361Z,8.59
2022-12-26T01:45:33.883Z,8.64
2022-12-26T01:49:53.087Z,8.48
2022-12-26T01:54:40.807Z,8.59
2022-12-26T01:59:12.976Z,8.52
2022-12-26T02:03:47.766Z,8.62
2022-12-26T02:08:14.986Z,8.45
2022-12-26T02:12:38.495Z,8.41
2022-12-26T02:16:56.194Z,8.26
2022-12-26T02:21:56.377Z,8.31
2022-12-26T02:26:31.335Z,8.17
2022-12-26T02:30:50.650Z,8.22
2022-12-26T02:35:31.663Z,8.18
2022-12-26T02:39:56.837Z,8.01
2022-12-26T02:44:51.237Z,7.87
2022-12-26T02:49:29.950Z,7.59
2022-12-26T02:54:55.272Z,7.57
2022-12-26T02:59:55.537Z,7.61
2022-12-26T03:04:34.770Z,7.65
2022-12-26T03:09:29.463Z,7.50
2022-12-26T03:13:46.209Z,7.58
2022-12-26T03:18:06.781Z,7.66
2022-12-26T03:22:32.142Z,7.77
2022-12-26T03:26:54.272Z,7.59
2022-12-26T03:31:15.503Z,7.75
2022-12-26T03:35:34.328Z,7.81
2022-12-26T03:40:17.995Z,7.64
2022-12-26T03:45:10.858Z,7.67
2022-12-26T03:49:49.823Z,7.38
2022-12-26T03:54:32.306Z,7.38
2022-12-26T03:59:14.976Z,7.08
2022-12-26T04:03:52.106Z,7.29
2022-12-26T04:08:36.029Z,7.18
2022-12-26T04:13:12.126Z,7.33
2022-12-26T04:17:50.206Z,7.32
2022-12-26T04:23:02.395Z,7.28
2022-12-26T04:27:40.536Z,7.61
2022-12-26T04:32:27.509Z,7.60
2022-12-26T04:37:20.657Z,7.65
2022-12-26T04:41:56.019Z,7.44
2022-12-26T04:46:12.677Z,7.58
2022-12-26T04:50:29.053Z,7.55
2022-12-26T04:54:45.284Z,7.75
2022-12-26T04:59:01.517Z,7.78
2022-12-26T05:03:36.463Z,7.76
2022-12-26T05:08:11.477Z,7.71
2022-12-26T05:12:27.784Z,7.59
2022-12-26T05:17:02.454Z,7.48
2022-12-26T05:21:37.609Z,7.59
2022-12-26T05:26:12.219Z,7.67
2022-12-26T05:30:28.817Z,7.69
2022-12-26T05:34:45.095Z,7.90
2022-12-26T05:39:02.163Z,7.71
2022-12-26T05:43:20.059Z,7.67
2022-12-26T05:47:36.415Z,7.74
2022-12-26T05:51:52.620Z,7.72
2022-12-26T05:56:14.905Z,7.62
2022-12-26T06:00:31.730Z,7.68
2022-12-26T06:04:47.910Z,7.59
2022-12-26T06:09:04.141Z,7.51
2022-12-26T06:13:20.714Z,7.46
2022-12-26T06:17:37.132Z,7.64
2022-12-26T06:21:53.448Z,7.53
2022-12-26T06:26:10.551Z,7.55
2022-12-26T06:30:26.737Z,7.72
2022-12-26T06:34:43.081Z,7.56
2022-12-26T06:39:01.675Z,7.61
2022-12-26T06:43:18.004Z,7.72
2022-12-26T06:47:34.295Z,7.76
2022-12-26T06:51:50.550Z,7.83
2022-12-26T06:56:15.320Z,7.86
2022-12-26T07:00:31.728Z,7.86
2022-12-26T07:04:48.052Z,7.83
2022-12-26T07:09:10.139Z,7.97
2022-12-26T07:13:26.498Z,7.94
2022-12-26T07:17:42.909Z,7.97
2022-12-26T07:21:59.173Z,8.13
2022-12-26T07:26:15.459Z,8.32
2022-12-26T07:30:31.755Z,8.43
2022-12-26T07:34:47.869Z,8.50
2022-12-26T07:39:04.463Z,8.63
2022-12-26T07:43:20.714Z,8.76
2022-12-26T07:47:37.027Z,8.57
2022-12-26T07:51:53.504Z,8.74
2022-12-26T07:56:09.813Z,8.79
2022-12-26T08:00:26.024Z,8.76
2022-12-26T08:04:42.324Z,8.77
2022-12-26T08:08:58.550Z,8.72
2022-12-26T08:13:15.991Z,8.95
2022-12-26T08:17:33.133Z,8.95
2022-12-26T08:21:51.765Z,9.00
2022-12-26T08:26:10.717Z,9.06
2022-12-26T08:30:27.108Z,8.93
2022-12-26T08:34:43.375Z,9.07
2022-12-26T08:38:59.695Z,8.92
2022-12-26T08:43:42.170Z,9.23
2022-12-26T08:47:54.690Z,9.23
2022-12-26T08:52:10.921Z,9.35
2022-12-26T08:56:28.905Z,9.40
2022-12-26T09:00:46.485Z,9.14
2022-12-26T09:05:05.797Z,9.39
2022-12-26T09:11:37.476Z,9.42
2022-12-26T09:15:53.934Z,9.42
2022-12-26T09:20:10.755Z,9.23
2022-12-26T09:24:26.985Z,8.81
2022-12-26T09:28:45.791Z,9.36
2022-12-26T09:33:04.316Z,9.45
2022-12-26T09:37:20.644Z,9.06
2022-12-26T09:41:42.789Z,9.49
2022-12-26T09:46:13.249Z,8.70
2022-12-26T09:50:41.004Z,8.85
2022-12-26T09:55:02.477Z,9.10
2022-12-26T09:59:21.726Z,8.98
2022-12-26T10:03:43.526Z,9.74
2022-12-26T10:08:11.057Z,9.76
2022-12-26T10:13:01.145Z,9.57
2022-12-26T10:17:43.222Z,9.76
2022-12-26T10:22:08.196Z,10.17
2022-12-26T10:26:29.406Z,10.44
2022-12-26T10:30:47.100Z,10.93
2022-12-26T10:35:16.761Z,11.59
2022-12-26T10:39:48.211Z,12.02
2022-12-26T10:44:04.675Z,12.12
2022-12-26T10:48:21.372Z,12.62
2022-12-26T10:52:40.964Z,12.62
2022-12-26T10:56:59.273Z,12.82
2022-12-26T11:01:37.206Z,13.00
2022-12-26T11:06:10.851Z,13.71
2022-12-26T11:10:29.215Z,12.31
2022-12-26T11:14:45.907Z,12.43
2022-12-26T11:19:02.115Z,13.16
2022-12-26T11:23:48.183Z,13.21
2022-12-26T11:28:19.074Z,14.38
2022-12-26T11:32:35.294Z,14.33
2022-12-26T11:36:51.715Z,14.63
2022-12-26T11:41:32.578Z,14.75
2022-12-26T11:45:51.938Z,14.35
2022-12-26T11:50:19.309Z,14.58
2022-12-26T11:54:38.885Z,14.55
2022-12-26T11:59:13.856Z,14.54
2022-12-26T12:03:49.659Z,14.27
2022-12-26T12:08:20.299Z,14.17
2022-12-26T12:13:02.110Z,14.07
2022-12-26T12:17:44.170Z,14.19
2022-12-26T12:22:34.917Z,13.88
2022-12-26T12:27:06.845Z,14.51
2022-12-26T12:31:51.915Z,14.25
2022-12-26T12:36:18.855Z,14.79
2022-12-26T12:40:41.329Z,14.78
2022-12-26T12:45:16.046Z,14.90
2022-12-26T12:49:44.130Z,14.53
2022-12-26T12:54:09.499Z,14.26
2022-12-26T12:58:31.235Z,14.32
2022-12-26T13:03:17.036Z,14.17
2022-12-26T13:07:45.243Z,13.52
2022-12-26T13:12:06.556Z,13.93
2022-12-26T13:16:43.638Z,14.08
2022-12-26T13:21:08.975Z,13.52
2022-12-26T13:25:27.566Z,13.44
2022-12-26T13:29:47.734Z,13.40
2022-12-26T13:34:07.777Z,13.34
2022-12-26T13:38:26.194Z,12.55
2022-12-26T13:43:08.905Z,12.89
2022-12-26T13:47:51.117Z,12.55
2022-12-26T13:52:15.834Z,12.44
2022-12-26T13:56:31.986Z,12.16
2022-12-26T14:00:48.692Z,11.84
2022-12-26T14:05:32.381Z,11.74
2022-12-26T14:10:04.351Z,11.44
2022-12-26T14:14:57.189Z,11.16
2022-12-26T14:19:32.151Z,11.12
2022-12-26T14:24:18.696Z,10.59
2022-12-26T14:28:43.711Z,10.95
2022-12-26T14:33:27.033Z,11.16
2022-12-26T14:38:22.438Z,10.86
2022-12-26T14:43:10.769Z,10.71
2022-12-26T14:47:38.903Z,10.86
2022-12-26T14:51:55.180Z,10.38
2022-12-26T14:56:36.838Z,10.22
2022-12-26T15:00:54.339Z,10.38
2022-12-26T15:05:22.830Z,10.38
2022-12-26T15:10:15.945Z,9.97
2022-12-26T15:14:59.881Z,10.22
2022-12-26T15:19:44.018Z,10.06
2022-12-26T15:24:26.970Z,10.08
2022-12-26T15:29:33.339Z,9.96
2022-12-26T15:34:11.333Z,9.98
2022-12-26T15:38:42.188Z,9.73
2022-12-26T15:43:10.227Z,9.93
2022-12-26T15:47:47.525Z,9.84
2022-12-26T15:52:08.572Z,9.89
2022-12-26T15:56:48.964Z,9.77
2022-12-26T16:01:05.600Z,9.91
2022-12-26T16:05:31.040Z,9.81
2022-12-26T16:09:53.226Z,9.52
2022-12-26T16:14:25.836Z,9.64
2022-12-26T16:18:41.995Z,9.66
2022-12-26T16:22:58.298Z,9.75
2022-12-26T16:27:24.034Z,9.61
2022-12-26T16:31:40.376Z,9.61
2022-12-26T16:36:00.981Z,9.73
2022-12-26T16:40:21.941Z,9.69
2022-12-26T16:44:40.806Z,9.59
2022-12-26T16:49:01.486Z,9.65
2022-12-26T16:53:20.707Z,9.60
2022-12-26T16:57:36.938Z,9.54
2022-12-26T17:01:58.444Z,9.73
2022-12-26T17:06:52.961Z,9.75
2022-12-26T17:11:09.504Z,9.94
2022-12-26T17:15:36.429Z,9.48
2022-12-26T17:19:54.848Z,9.28
2022-12-26T17:24:25.107Z,9.42
2022-12-26T17:28:41.332Z,9.16
2022-12-26T17:33:23.750Z,9.42
2022-12-26T17:37:40.236Z,8.95
2022-12-26T17:42:01.791Z,9.05
2022-12-26T17:46:18.700Z,9.25
2022-12-26T17:50:43.536Z,8.96
2022-12-26T17:54:59.954Z,8.99
2022-12-26T17:59:16.177Z,9.15
2022-12-26T18:03:32.635Z,9.31
2022-12-26T18:07:50.948Z,9.28
2022-12-26T18:12:07.222Z,9.10
2022-12-26T18:16:28.314Z,9.14
2022-12-26T18:20:44.485Z,9.03
2022-12-26T18:25:00.623Z,9.24
2022-12-26T18:29:16.844Z,9.20
2022-12-26T18:33:33.005Z,9.07
2022-12-26T18:37:51.398Z,8.97
2022-12-26T18:42:11.569Z,8.77
2022-12-26T18:46:29.889Z,8.96
2022-12-26T18:50:46.398Z,8.92
2022-12-26T18:55:02.565Z,8.82
2022-12-26T18:59:18.723Z,8.77
2022-12-26T19:03:34.907Z,8.44
2022-12-26T19:07:51.235Z,8.70
2022-12-26T19:12:07.498Z,8.54
2022-12-26T19:16:23.765Z,8.57
2022-12-26T19:20:44.166Z,8.88
2022-12-26T19:25:00.570Z,8.88
2022-12-26T19:29:16.829Z,8.56
2022-12-26T19:33:32.928Z,8.39
2022-12-26T19:37:49.057Z,8.60
2022-12-26T19:42:05.264Z,8.70
2022-12-26T19:46:21.530Z,8.64
2022-12-26T19:50:37.806Z,8.38
2022-12-26T19:54:54.205Z,7.90
2022-12-26T19:59:10.437Z,8.51
2022-12-26T20:03:26.670Z,8.19
2022-12-26T20:07:42.914Z,8.46
2022-12-26T20:11:59.199Z,8.33
2022-12-26T20:17:03.013Z,8.46
2022-12-26T20:21:01.643Z,8.51
2022-12-26T20:25:18.177Z,8.52
2022-12-26T20:29:34.403Z,8.48
2022-12-26T20:33:52.664Z,8.25
2022-12-26T20:38:09.377Z,8.54
2022-12-26T20:42:25.927Z,8.58
2022-12-26T20:46:42.783Z,8.58
2022-12-26T20:51:00.256Z,8.33
2022-12-26T20:55:20.145Z,8.69
2022-12-26T20:59:37.507Z,8.33
2022-12-26T21:03:55.046Z,8.38
2022-12-26T21:08:11.286Z,8.42
2022-12-26T21:12:27.409Z,8.58
2022-12-26T21:16:46.345Z,8.24
2022-12-26T21:21:13.684Z,8.26
2022-12-26T21:25:30.017Z,8.70
2022-12-26T21:29:46.179Z,8.46
2022-12-26T21:34:03.518Z,8.45
2022-12-26T21:38:24.001Z,8.50
2022-12-26T21:42:40.255Z,8.64
2022-12-26T21:46:56.405Z,8.45
2022-12-26T21:51:16.589Z,8.40
2022-12-26T21:55:36.601Z,8.41
2022-12-26T21:59:59.491Z,8.47
2022-12-26T22:04:23.856Z,8.37
2022-12-26T22:08:40.750Z,8.38
2022-12-26T22:12:57.006Z,8.68
2022-12-26T22:17:13.454Z,8.26
2022-12-26T22:21:29.776Z,8.55
2022-12-26T22:25:54.997Z,8.58
2022-12-26T22:30:11.859Z,8.33
2022-12-26T22:34:28.145Z,8.52
2022-12-26T22:38:44.207Z,8.65
2022-12-26T22:43:00.524Z,8.48
2022-12-26T22:47:16.953Z,8.50
2022-12-26T22:51:33.140Z,8.64
2022-12-26T22:55:51.256Z,8.65
2022-12-26T23:00:11.304Z,8.73
2022-12-26T23:04:30.828Z,8.44
2022-12-26T23:08:47.786Z,8.54
2022-12-26T23:13:04.118Z,8.63
2022-12-26T23:17:40.485Z,8.76
2022-12-26T23:21:58.523Z,8.73
2022-12-26T23:26:14.810Z,8.69
2022-12-26T23:30:31.814Z,8.44
2022-12-26T23:34:48.003Z,8.61
2022-12-26T23:39:04.130Z,8.70
2022-12-26T23:43:20.822Z,8.65
2022-12-26T23:47:38.535Z,8.41
2022-12-26T23:51:54.942Z,8.73
2022-12-26T23:56:11.446Z,8.51
